^^
Saratoga-Weather Station Historical Data
Daily Summary for August 16, 2020 Units:  Both    English   Metric
Daily Weekly Monthly Yearly Custom
  High: Low: Average:
Temperature: 92.7 °F /  33.7 °C 59.4 °F /  15.2 °C 73 °F /  22.8 °C
Dew Point: 62.4 °F /  16.9 °C 50.7 °F /  10.4 °C 57.6 °F /  14.2 °C
Humidity: 89% 30% 62%
Wind Speed: 12.1mph /  19.5km/h - 1.1mph /  1.7km/h
Wind Gust: 19mph /  30.6km/h - -
Wind- - SSW
Pressure: 30.1 in /  1020.3 hPa 30 in /  1015.6 hPa -
Precipitation: 0 in /  0.0 mm    
Historical Graphs
 
 
Tabular Data for August 16, 2020
Time Temperature Dew Point Pressure Wind Wind Speed Wind Gust Humidity Rainfall Rate (Hourly) solar
00:04 69.6 °F /  20.9 °C 58.1 °F /  14.5 °C 30in /  1017.3hPa Calm     67% 0in /  0.0mm 0 W/m2
00:09 69.6 °F /  20.9 °C 58.1 °F /  14.5 °C 30in /  1017.3hPa Calm     67% 0in /  0.0mm 0 W/m2
00:14 69.4 °F /  20.8 °C 57.9 °F /  14.4 °C 30in /  1017.3hPa Calm     67% 0in /  0.0mm 0 W/m2
00:19 69.4 °F /  20.8 °C 57.9 °F /  14.4 °C 30in /  1017.3hPa Calm     67% 0in /  0.0mm 0 W/m2
00:24 69.3 °F /  20.7 °C 58.3 °F /  14.6 °C 30in /  1017.3hPa Calm     68% 0in /  0.0mm 0 W/m2
00:29 69.3 °F /  20.7 °C 58.3 °F /  14.6 °C 30.1in /  1017.6hPa Calm     68% 0in /  0.0mm 0 W/m2
00:34 69.1 °F /  20.6 °C 58.1 °F /  14.5 °C 30.1in /  1017.6hPa Calm     68% 0in /  0.0mm 0 W/m2
00:39 68.7 °F /  20.4 °C 58.1 °F /  14.5 °C 30in /  1017.3hPa Calm     69% 0in /  0.0mm 0 W/m2
00:44 68.5 °F /  20.3 °C 57.9 °F /  14.4 °C 30.1in /  1017.6hPa Calm     69% 0in /  0.0mm 0 W/m2
00:49 68.4 °F /  20.2 °C 58.3 °F /  14.6 °C 30.1in /  1017.6hPa Calm     70% 0in /  0.0mm 0 W/m2
00:54 68.2 °F /  20.1 °C 58.1 °F /  14.5 °C 30.1in /  1017.6hPa Calm   1mph /  1.6km/h 70% 0in /  0.0mm 0 W/m2
00:59 67.8 °F /  19.9 °C 57.7 °F /  14.3 °C 30in /  1017.3hPa Calm     70% 0in /  0.0mm 0 W/m2
01:04 67.6 °F /  19.8 °C 57.9 °F /  14.4 °C 30in /  1017.3hPa Calm   1mph /  1.6km/h 71% 0in /  0.0mm 0 W/m2
01:09 67.5 °F /  19.7 °C 57.7 °F /  14.3 °C 30in /  1017.3hPa Calm     71% 0in /  0.0mm 0 W/m2
01:14 67.5 °F /  19.7 °C 57.7 °F /  14.3 °C 30.1in /  1017.6hPa Calm     71% 0in /  0.0mm 0 W/m2
01:19 67.3 °F /  19.6 °C 57.6 °F /  14.2 °C 30.1in /  1017.6hPa Calm     71% 0in /  0.0mm 0 W/m2
01:24 67.3 °F /  19.6 °C 57.9 °F /  14.4 °C 30in /  1017.3hPa Calm     72% 0in /  0.0mm 0 W/m2
01:29 67.1 °F /  19.5 °C 58.1 °F /  14.5 °C 30in /  1017.3hPa Calm     73% 0in /  0.0mm 0 W/m2
01:34 66.9 °F /  19.4 °C 58.3 °F /  14.6 °C 30in /  1017.3hPa Calm     74% 0in /  0.0mm 0 W/m2
01:39 67.1 °F /  19.5 °C 58.8 °F /  14.9 °C 30in /  1017.3hPa Calm     75% 0in /  0.0mm 0 W/m2
01:44 67.3 °F /  19.6 °C 58.6 °F /  14.8 °C 30in /  1017.3hPa Calm     74% 0in /  0.0mm 0 W/m2
01:49 67.3 °F /  19.6 °C 58.3 °F /  14.6 °C 30in /  1017.3hPa Calm     73% 0in /  0.0mm 0 W/m2
01:54 67.3 °F /  19.6 °C 58.6 °F /  14.8 °C 30in /  1017.3hPa Calm     74% 0in /  0.0mm 0 W/m2
01:59 66.9 °F /  19.4 °C 58.3 °F /  14.6 °C 30in /  1017.3hPa Calm     74% 0in /  0.0mm 0 W/m2
02:04 66.7 °F /  19.3 °C 58.1 °F /  14.5 °C 30in /  1017.3hPa Calm     74% 0in /  0.0mm 0 W/m2
02:09 66.6 °F /  19.2 °C 58.1 °F /  14.5 °C 30in /  1017.3hPa Calm     74% 0in /  0.0mm 0 W/m2
02:14 66.4 °F /  19.1 °C 58.3 °F /  14.6 °C 30in /  1017.3hPa Calm     75% 0in /  0.0mm 0 W/m2
02:19 66 °F /  18.9 °C 57.9 °F /  14.4 °C 30in /  1017.3hPa Calm     75% 0in /  0.0mm 0 W/m2
02:24 65.8 °F /  18.8 °C 57.7 °F /  14.3 °C 30in /  1017.3hPa Calm     75% 0in /  0.0mm 0 W/m2
02:29 65.8 °F /  18.8 °C 58.1 °F /  14.5 °C 30in /  1017.3hPa Calm     76% 0in /  0.0mm 0 W/m2
02:34 65.7 °F /  18.7 °C 57.9 °F /  14.4 °C 30in /  1017.3hPa Calm     76% 0in /  0.0mm 0 W/m2
02:39 65.5 °F /  18.6 °C 57.7 °F /  14.3 °C 30in /  1017.3hPa Calm     76% 0in /  0.0mm 0 W/m2
02:44 65.3 °F /  18.5 °C 57.6 °F /  14.2 °C 30in /  1017.3hPa Calm     76% 0in /  0.0mm 0 W/m2
02:49 64.9 °F /  18.3 °C 57.6 °F /  14.2 °C 30in /  1017.3hPa Calm     77% 0in /  0.0mm 0 W/m2
02:54 64.9 °F /  18.3 °C 57.6 °F /  14.2 °C 30in /  1017.3hPa Calm     77% 0in /  0.0mm 0 W/m2
02:59 64.8 °F /  18.2 °C 57.4 °F /  14.1 °C 30in /  1017.3hPa Calm     77% 0in /  0.0mm 0 W/m2
03:05 64.6 °F /  18.1 °C 57.6 °F /  14.2 °C 30in /  1017.3hPa Calm     78% 0in /  0.0mm 0 W/m2
03:10 64.4 °F /  18 °C 57.4 °F /  14.1 °C 30in /  1017.3hPa Calm     78% 0in /  0.0mm 0 W/m2
03:15 64.2 °F /  17.9 °C 57.2 °F /  14 °C 30in /  1017.3hPa Calm     78% 0in /  0.0mm 0 W/m2
03:20 64 °F /  17.8 °C 57.4 °F /  14.1 °C 30in /  1016.9hPa Calm     79% 0in /  0.0mm 0 W/m2
03:25 64 °F /  17.8 °C 57.4 °F /  14.1 °C 30in /  1016.9hPa Calm     79% 0in /  0.0mm 0 W/m2
03:30 63.9 °F /  17.7 °C 57.2 °F /  14 °C 30in /  1016.9hPa Calm     79% 0in /  0.0mm 0 W/m2
03:35 63.9 °F /  17.7 °C 56.8 °F /  13.8 °C 30in /  1017.3hPa Calm     78% 0in /  0.0mm 0 W/m2
03:40 64 °F /  17.8 °C 57 °F /  13.9 °C 30in /  1017.3hPa Calm   1mph /  1.6km/h 78% 0in /  0.0mm 0 W/m2
03:45 64.2 °F /  17.9 °C 57.2 °F /  14 °C 30in /  1017.3hPa Calm   1mph /  1.6km/h 78% 0in /  0.0mm 0 W/m2
03:50 64.6 °F /  18.1 °C 57.2 °F /  14 °C 30in /  1017.3hPa Calm     77% 0in /  0.0mm 0 W/m2
03:55 64.4 °F /  18 °C 57 °F /  13.9 °C 30in /  1017.3hPa Calm   1mph /  1.6km/h 77% 0in /  0.0mm 0 W/m2
04:00 64.2 °F /  17.9 °C 56.8 °F /  13.8 °C 30in /  1017.3hPa Calm     77% 0in /  0.0mm 0 W/m2
04:05 64 °F /  17.8 °C 56.7 °F /  13.7 °C 30in /  1017.3hPa Calm     77% 0in /  0.0mm 0 W/m2
04:10 64 °F /  17.8 °C 57 °F /  13.9 °C 30in /  1017.3hPa Calm     78% 0in /  0.0mm 0 W/m2
04:15 63.9 °F /  17.7 °C 56.8 °F /  13.8 °C 30in /  1017.3hPa Calm     78% 0in /  0.0mm 0 W/m2
04:20 63.5 °F /  17.5 °C 56.5 °F /  13.6 °C 30in /  1017.3hPa Calm     78% 0in /  0.0mm 0 W/m2
04:25 63.3 °F /  17.4 °C 56.7 °F /  13.7 °C 30in /  1016.9hPa Calm     79% 0in /  0.0mm 0 W/m2
04:30 63 °F /  17.2 °C 56.7 °F /  13.7 °C 30in /  1016.9hPa Calm     80% 0in /  0.0mm 0 W/m2
04:35 63 °F /  17.2 °C 56.7 °F /  13.7 °C 30in /  1016.9hPa Calm     80% 0in /  0.0mm 0 W/m2
04:40 63 °F /  17.2 °C 56.7 °F /  13.7 °C 30in /  1016.9hPa Calm     80% 0in /  0.0mm 0 W/m2
04:45 63 °F /  17.2 °C 56.7 °F /  13.7 °C 30in /  1016.9hPa Calm     80% 0in /  0.0mm 0 W/m2
04:50 63 °F /  17.2 °C 56.7 °F /  13.7 °C 30in /  1016.9hPa Calm     80% 0in /  0.0mm 0 W/m2
04:55 62.6 °F /  17 °C 56.3 °F /  13.5 °C 30in /  1016.9hPa Calm     80% 0in /  0.0mm 0 W/m2
05:00 62.4 °F /  16.9 °C 56.1 °F /  13.4 °C 30in /  1016.9hPa Calm     80% 0in /  0.0mm 0 W/m2
05:05 62.2 °F /  16.8 °C 56.3 °F /  13.5 °C 30in /  1016.9hPa Calm     81% 0in /  0.0mm 0 W/m2
05:10 62.1 °F /  16.7 °C 56.1 °F /  13.4 °C 30in /  1016.9hPa Calm     81% 0in /  0.0mm 0 W/m2
05:15 62.1 °F /  16.7 °C 56.5 °F /  13.6 °C 30in /  1016.9hPa Calm     82% 0in /  0.0mm 0 W/m2
05:20 62.1 °F /  16.7 °C 56.5 °F /  13.6 °C 30in /  1016.9hPa Calm     82% 0in /  0.0mm 0 W/m2
05:25 62.1 °F /  16.7 °C 56.5 °F /  13.6 °C 30in /  1016.9hPa Calm     82% 0in /  0.0mm 0 W/m2
05:30 62.1 °F /  16.7 °C 56.5 °F /  13.6 °C 30in /  1016.9hPa Calm     82% 0in /  0.0mm 0 W/m2
05:35 62.1 °F /  16.7 °C 56.5 °F /  13.6 °C 30in /  1016.9hPa Calm     82% 0in /  0.0mm 0 W/m2
05:40 61.9 °F /  16.6 °C 56.7 °F /  13.7 °C 30in /  1016.9hPa Calm     83% 0in /  0.0mm 0 W/m2
05:45 61.7 °F /  16.5 °C 56.8 °F /  13.8 °C 30in /  1016.9hPa Calm     84% 0in /  0.0mm 0 W/m2
05:50 61.5 °F /  16.4 °C 56.7 °F /  13.7 °C 30in /  1016.9hPa Calm     84% 0in /  0.0mm 0 W/m2
05:56 61.3 °F /  16.3 °C 56.5 °F /  13.6 °C 30in /  1016.9hPa Calm     84% 0in /  0.0mm 0 W/m2
06:01 61.2 °F /  16.2 °C 56.7 °F /  13.7 °C 30in /  1016.9hPa Calm     85% 0in /  0.0mm 0 W/m2
06:06 61.2 °F /  16.2 °C 56.7 °F /  13.7 °C 30in /  1016.9hPa Calm     85% 0in /  0.0mm 0 W/m2
06:11 61.2 °F /  16.2 °C 56.7 °F /  13.7 °C 30in /  1016.9hPa Calm     85% 0in /  0.0mm 0 W/m2
06:16 61 °F /  16.1 °C 56.5 °F /  13.6 °C 30in /  1016.9hPa Calm     85% 0in /  0.0mm 0 W/m2
06:21 60.8 °F /  16 °C 56.3 °F /  13.5 °C 30in /  1016.9hPa Calm     85% 0in /  0.0mm 0 W/m2
06:26 60.6 °F /  15.9 °C 56.1 °F /  13.4 °C 30in /  1016.9hPa Calm     85% 0in /  0.0mm 0 W/m2
06:31 60.4 °F /  15.8 °C 56.3 °F /  13.5 °C 30in /  1016.9hPa Calm     86% 0in /  0.0mm 0 W/m2
06:36 60.4 °F /  15.8 °C 56.3 °F /  13.5 °C 30in /  1016.9hPa Calm     86% 0in /  0.0mm 0 W/m2
06:41 60.3 °F /  15.7 °C 56.1 °F /  13.4 °C 30in /  1016.9hPa Calm     86% 0in /  0.0mm 0 W/m2
06:46 60.3 °F /  15.7 °C 56.1 °F /  13.4 °C 30in /  1016.9hPa Calm     86% 0in /  0.0mm 0 W/m2
06:51 60.3 °F /  15.7 °C 56.1 °F /  13.4 °C 30in /  1016.9hPa Calm     86% 0in /  0.0mm 0 W/m2
06:56 60.1 °F /  15.6 °C 55.9 °F /  13.3 °C 30in /  1016.9hPa Calm     86% 0in /  0.0mm 0 W/m2
07:01 59.9 °F /  15.5 °C 55.9 °F /  13.3 °C 30in /  1017.3hPa Calm     87% 0in /  0.0mm 0 W/m2
07:06 59.7 °F /  15.4 °C 55.8 °F /  13.2 °C 30in /  1017.3hPa Calm     87% 0in /  0.0mm 0 W/m2
07:11 59.7 °F /  15.4 °C 55.8 °F /  13.2 °C 30in /  1017.3hPa Calm     87% 0in /  0.0mm 0 W/m2
07:16 59.5 °F /  15.3 °C 55.6 °F /  13.1 °C 30in /  1017.3hPa Calm     87% 0in /  0.0mm 0 W/m2
07:21 59.4 °F /  15.2 °C 55.8 °F /  13.2 °C 30in /  1017.3hPa Calm     88% 0in /  0.0mm 0 W/m2
07:26 59.5 °F /  15.3 °C 55.9 °F /  13.3 °C 30in /  1017.3hPa Calm     88% 0in /  0.0mm 5 W/m2
07:31 59.5 °F /  15.3 °C 55.9 °F /  13.3 °C 30in /  1017.3hPa Calm     88% 0in /  0.0mm 7 W/m2
07:36 59.5 °F /  15.3 °C 55.9 °F /  13.3 °C 30in /  1017.3hPa Calm     88% 0in /  0.0mm 11 W/m2
07:41 59.5 °F /  15.3 °C 55.9 °F /  13.3 °C 30in /  1017.3hPa Calm     88% 0in /  0.0mm 12 W/m2
07:46 59.5 °F /  15.3 °C 56.3 °F /  13.5 °C 30in /  1017.3hPa Calm     89% 0in /  0.0mm 14 W/m2
07:51 59.5 °F /  15.3 °C 55.9 °F /  13.3 °C 30in /  1017.3hPa Calm     88% 0in /  0.0mm 16 W/m2
07:56 59.7 °F /  15.4 °C 56.1 °F /  13.4 °C 30.1in /  1017.6hPa Calm     88% 0in /  0.0mm 19 W/m2
08:01 59.7 °F /  15.4 °C 56.1 °F /  13.4 °C 30.1in /  1017.6hPa Calm     88% 0in /  0.0mm 21 W/m2
08:06 59.9 °F /  15.5 °C 56.3 °F /  13.5 °C 30.1in /  1017.6hPa Calm     88% 0in /  0.0mm 25 W/m2
08:11 60.1 °F /  15.6 °C 56.5 °F /  13.6 °C 30.1in /  1017.6hPa Calm     88% 0in /  0.0mm 28 W/m2
08:16 60.3 °F /  15.7 °C 56.3 °F /  13.5 °C 30.1in /  1017.6hPa Calm     87% 0in /  0.0mm 32 W/m2
08:21 60.4 °F /  15.8 °C 56.5 °F /  13.6 °C 30.1in /  1017.6hPa Calm     87% 0in /  0.0mm 44 W/m2
08:26 60.6 °F /  15.9 °C 56.5 °F /  13.6 °C 30.1in /  1017.6hPa Calm     86% 0in /  0.0mm 90 W/m2
08:31 61 °F /  16.1 °C 56.5 °F /  13.6 °C 30.1in /  1017.6hPa Calm     85% 0in /  0.0mm 93 W/m2
08:36 61.3 °F /  16.3 °C 56.8 °F /  13.8 °C 30.1in /  1017.6hPa Calm     85% 0in /  0.0mm 109 W/m2
08:41 61.7 °F /  16.5 °C 57.2 °F /  14 °C 30.1in /  1017.6hPa ESE 0.9mph /  1.4km/h 2mph /  3.2km/h 85% 0in /  0.0mm 123 W/m2
08:46 62.2 °F /  16.8 °C 57.4 °F /  14.1 °C 30.1in /  1017.6hPa Calm   2mph /  3.2km/h 84% 0in /  0.0mm 47 W/m2
08:51 62.8 °F /  17.1 °C 57.6 °F /  14.2 °C 30.1in /  1018.0hPa ENE 2mph /  3.2km/h 2mph /  3.2km/h 83% 0in /  0.0mm 42 W/m2
08:56 63.1 °F /  17.3 °C 57.2 °F /  14 °C 30.1in /  1018.0hPa ENE 2mph /  3.2km/h 2mph /  3.2km/h 81% 0in /  0.0mm 151 W/m2
09:01 63.7 °F /  17.6 °C 57.7 °F /  14.3 °C 30.1in /  1018.0hPa Calm   1mph /  1.6km/h 81% 0in /  0.0mm 178 W/m2
09:06 64 °F /  17.8 °C 58.1 °F /  14.5 °C 30.1in /  1018.0hPa East 0.9mph /  1.4km/h 2mph /  3.2km/h 81% 0in /  0.0mm 195 W/m2
09:11 64.4 °F /  18 °C 58.1 °F /  14.5 °C 30.1in /  1018.0hPa ENE 0.9mph /  1.4km/h 2mph /  3.2km/h 80% 0in /  0.0mm 204 W/m2
09:16 64.8 °F /  18.2 °C 58.1 °F /  14.5 °C 30.1in /  1018.0hPa East 0.9mph /  1.4km/h 2mph /  3.2km/h 79% 0in /  0.0mm 128 W/m2
09:21 65.3 °F /  18.5 °C 58.3 °F /  14.6 °C 30.1in /  1018.0hPa Calm     78% 0in /  0.0mm 62 W/m2
09:26 65.8 °F /  18.8 °C 58.5 °F /  14.7 °C 30.1in /  1018.0hPa Calm     77% 0in /  0.0mm 69 W/m2
09:31 66.6 °F /  19.2 °C 58.8 °F /  14.9 °C 30.1in /  1018.0hPa Calm   2mph /  3.2km/h 76% 0in /  0.0mm 90 W/m2
09:36 67.3 °F /  19.6 °C 59 °F /  15 °C 30.1in /  1018.0hPa Calm     75% 0in /  0.0mm 107 W/m2
09:41 67.6 °F /  19.8 °C 59.4 °F /  15.2 °C 30.1in /  1018.0hPa East 0.9mph /  1.4km/h 1mph /  1.6km/h 75% 0in /  0.0mm 132 W/m2
09:46 68.4 °F /  20.2 °C 59.7 °F /  15.4 °C 30.1in /  1018.0hPa NE 0.9mph /  1.4km/h 2mph /  3.2km/h 74% 0in /  0.0mm 142 W/m2
09:51 69.1 °F /  20.6 °C 59.4 °F /  15.2 °C 30.1in /  1018.0hPa ENE 2mph /  3.2km/h 2mph /  3.2km/h 71% 0in /  0.0mm 155 W/m2
09:56 69.6 °F /  20.9 °C 58.6 °F /  14.8 °C 30.1in /  1018.0hPa NE 2mph /  3.2km/h 3mph /  4.8km/h 68% 0in /  0.0mm 160 W/m2
10:01 70 °F /  21.1 °C 59 °F /  15 °C 30.1in /  1018.0hPa NE 0.9mph /  1.4km/h 1mph /  1.6km/h 68% 0in /  0.0mm 155 W/m2
10:06 70.3 °F /  21.3 °C 59.4 °F /  15.2 °C 30.1in /  1018.0hPa East 2.9mph /  4.7km/h 3mph /  4.8km/h 68% 0in /  0.0mm 158 W/m2
10:11 71.1 °F /  21.7 °C 59.2 °F /  15.1 °C 30.1in /  1018.0hPa ENE 2mph /  3.2km/h 2mph /  3.2km/h 66% 0in /  0.0mm 149 W/m2
10:16 71.4 °F /  21.9 °C 59 °F /  15 °C 30.1in /  1018.0hPa Calm   1mph /  1.6km/h 65% 0in /  0.0mm 139 W/m2
10:21 71.8 °F /  22.1 °C 59.4 °F /  15.2 °C 30.1in /  1018.0hPa ENE 0.9mph /  1.4km/h 1mph /  1.6km/h 65% 0in /  0.0mm 149 W/m2
10:26 72.3 °F /  22.4 °C 59.5 °F /  15.3 °C 30.1in /  1018.0hPa ENE 2.9mph /  4.7km/h 3mph /  4.8km/h 64% 0in /  0.0mm 132 W/m2
10:31 72.7 °F /  22.6 °C 59.4 °F /  15.2 °C 30.1in /  1018.0hPa Calm   2mph /  3.2km/h 63% 0in /  0.0mm 135 W/m2
10:36 72.5 °F /  22.5 °C 59.2 °F /  15.1 °C 30.1in /  1018.0hPa Calm   2mph /  3.2km/h 63% 0in /  0.0mm 142 W/m2
10:41 72.7 °F /  22.6 °C 59.4 °F /  15.2 °C 30.1in /  1018.0hPa East 0.9mph /  1.4km/h 2mph /  3.2km/h 63% 0in /  0.0mm 162 W/m2
10:46 72.7 °F /  22.6 °C 59.4 °F /  15.2 °C 30.1in /  1018.0hPa East 0.9mph /  1.4km/h 2mph /  3.2km/h 63% 0in /  0.0mm 155 W/m2
10:51 72.7 °F /  22.6 °C 58.8 °F /  14.9 °C 30.1in /  1018.0hPa ENE 0.9mph /  1.4km/h 2mph /  3.2km/h 62% 0in /  0.0mm 137 W/m2
10:56 72.9 °F /  22.7 °C 59 °F /  15 °C 30.1in /  1018.0hPa Calm   1mph /  1.6km/h 62% 0in /  0.0mm 107 W/m2
11:01 73.2 °F /  22.9 °C 59 °F /  15 °C 30.1in /  1018.0hPa Calm     61% 0in /  0.0mm 91 W/m2
11:06 73.8 °F /  23.2 °C 59 °F /  15 °C 30.1in /  1018.0hPa Calm   1mph /  1.6km/h 60% 0in /  0.0mm 86 W/m2
11:11 73.9 °F /  23.3 °C 57.7 °F /  14.3 °C 30.1in /  1018.0hPa Calm   1mph /  1.6km/h 57% 0in /  0.0mm 88 W/m2
11:16 74.5 °F /  23.6 °C 57.7 °F /  14.3 °C 30.1in /  1018.0hPa Calm   2mph /  3.2km/h 56% 0in /  0.0mm 88 W/m2
11:21 74.8 °F /  23.8 °C 58.6 °F /  14.8 °C 30.1in /  1018.0hPa West 0.9mph /  1.4km/h 1mph /  1.6km/h 57% 0in /  0.0mm 97 W/m2
11:26 75.7 °F /  24.3 °C 59.4 °F /  15.2 °C 30.1in /  1018.0hPa Calm   2mph /  3.2km/h 57% 0in /  0.0mm 95 W/m2
11:32 76.5 °F /  24.7 °C 59.2 °F /  15.1 °C 30.1in /  1018.0hPa Calm   2mph /  3.2km/h 55% 0in /  0.0mm 95 W/m2
11:37 77.4 °F /  25.2 °C 58.8 °F /  14.9 °C 30.1in /  1018.0hPa Calm   1mph /  1.6km/h 53% 0in /  0.0mm 93 W/m2
11:42 78.3 °F /  25.7 °C 59.2 °F /  15.1 °C 30.1in /  1018.0hPa ENE 0.9mph /  1.4km/h 2mph /  3.2km/h 52% 0in /  0.0mm 230 W/m2
11:47 78.4 °F /  25.8 °C 58.8 °F /  14.9 °C 30.1in /  1018.0hPa ENE 0.9mph /  1.4km/h 1mph /  1.6km/h 51% 0in /  0.0mm 541 W/m2
11:52 79.2 °F /  26.2 °C 59.5 °F /  15.3 °C 30.1in /  1018.0hPa ESE 2mph /  3.2km/h 3mph /  4.8km/h 51% 0in /  0.0mm 559 W/m2
11:57 79.9 °F /  26.6 °C 60.1 °F /  15.6 °C 30.1in /  1017.6hPa ENE 0.9mph /  1.4km/h 2mph /  3.2km/h 51% 0in /  0.0mm 568 W/m2
12:02 80.4 °F /  26.9 °C 60.1 °F /  15.6 °C 30.1in /  1017.6hPa SSE 2mph /  3.2km/h 2mph /  3.2km/h 50% 0in /  0.0mm 573 W/m2
12:07 81 °F /  27.2 °C 60.1 °F /  15.6 °C 30.1in /  1017.6hPa SSE 0.9mph /  1.4km/h 1mph /  1.6km/h 49% 0in /  0.0mm 578 W/m2
12:12 81.1 °F /  27.3 °C 60.1 °F /  15.6 °C 30.1in /  1017.6hPa Calm   1mph /  1.6km/h 49% 0in /  0.0mm 585 W/m2
12:17 81.3 °F /  27.4 °C 60.3 °F /  15.7 °C 30.1in /  1017.6hPa WNW 2mph /  3.2km/h 2mph /  3.2km/h 49% 0in /  0.0mm 599 W/m2
12:22 81.9 °F /  27.7 °C 60.8 °F /  16 °C 30.1in /  1017.6hPa WNW 0.9mph /  1.4km/h 1mph /  1.6km/h 49% 0in /  0.0mm 612 W/m2
12:27 82.2 °F /  27.9 °C 61.7 °F /  16.5 °C 30.1in /  1017.6hPa Calm     50% 0in /  0.0mm 629 W/m2
12:32 82.8 °F /  28.2 °C 61 °F /  16.1 °C 30.1in /  1017.6hPa West 0.9mph /  1.4km/h 3mph /  4.8km/h 48% 0in /  0.0mm 643 W/m2
12:37 83.3 °F /  28.5 °C 61.5 °F /  16.4 °C 30.1in /  1017.6hPa East 0.9mph /  1.4km/h 1mph /  1.6km/h 48% 0in /  0.0mm 671 W/m2
12:42 84.4 °F /  29.1 °C 61.3 °F /  16.3 °C 30.1in /  1017.6hPa ENE 0.9mph /  1.4km/h 2mph /  3.2km/h 46% 0in /  0.0mm 677 W/m2
12:47 84.7 °F /  29.3 °C 61 °F /  16.1 °C 30in /  1017.3hPa ESE 2mph /  3.2km/h 2mph /  3.2km/h 45% 0in /  0.0mm 691 W/m2
12:52 85.5 °F /  29.7 °C 61.7 °F /  16.5 °C 30in /  1017.3hPa NE 2mph /  3.2km/h 3mph /  4.8km/h 45% 0in /  0.0mm 686 W/m2
12:57 86.2 °F /  30.1 °C 62.4 °F /  16.9 °C 30in /  1017.3hPa Calm   2mph /  3.2km/h 45% 0in /  0.0mm 694 W/m2
13:02 86.2 °F /  30.1 °C 61 °F /  16.1 °C 30in /  1017.3hPa Calm   2mph /  3.2km/h 43% 0in /  0.0mm 671 W/m2
13:07 86.4 °F /  30.2 °C 61.2 °F /  16.2 °C 30in /  1017.3hPa ENE 4mph /  6.4km/h 4mph /  6.4km/h 43% 0in /  0.0mm 671 W/m2
13:12 86.5 °F /  30.3 °C 62.1 °F /  16.7 °C 30in /  1017.3hPa SE 0.9mph /  1.4km/h 1mph /  1.6km/h 44% 0in /  0.0mm 686 W/m2
13:17 87.1 °F /  30.6 °C 61.9 °F /  16.6 °C 30in /  1017.3hPa ESE 2mph /  3.2km/h 4mph /  6.4km/h 43% 0in /  0.0mm 719 W/m2
13:22 87.4 °F /  30.8 °C 61.5 °F /  16.4 °C 30in /  1016.9hPa Calm   4mph /  6.4km/h 42% 0in /  0.0mm 722 W/m2
13:27 88 °F /  31.1 °C 60.6 °F /  15.9 °C 30in /  1016.9hPa East 2mph /  3.2km/h 4mph /  6.4km/h 40% 0in /  0.0mm 714 W/m2
13:32 88.3 °F /  31.3 °C 60.3 °F /  15.7 °C 30in /  1016.9hPa NNW 0.9mph /  1.4km/h 2mph /  3.2km/h 39% 0in /  0.0mm 772 W/m2
13:37 88.5 °F /  31.4 °C 61.2 °F /  16.2 °C 30in /  1016.9hPa Calm   4mph /  6.4km/h 40% 0in /  0.0mm 738 W/m2
13:42 89.2 °F /  31.8 °C 60.3 °F /  15.7 °C 30in /  1016.9hPa ESE 2mph /  3.2km/h 4mph /  6.4km/h 38% 0in /  0.0mm 798 W/m2
13:47 89.4 °F /  31.9 °C 60.4 °F /  15.8 °C 30in /  1016.9hPa ESE 0.9mph /  1.4km/h 1mph /  1.6km/h 38% 0in /  0.0mm 803 W/m2
13:52 90 °F /  32.2 °C 60.3 °F /  15.7 °C 30in /  1016.9hPa NE 2.9mph /  4.7km/h 6mph /  9.7km/h 37% 0in /  0.0mm 803 W/m2
13:57 90.3 °F /  32.4 °C 60.4 °F /  15.8 °C 30in /  1016.9hPa NE 2mph /  3.2km/h 3mph /  4.8km/h 37% 0in /  0.0mm 775 W/m2
14:02 90.3 °F /  32.4 °C 59.7 °F /  15.4 °C 30in /  1016.9hPa WNW 2mph /  3.2km/h 4mph /  6.4km/h 36% 0in /  0.0mm 754 W/m2
14:07 90.5 °F /  32.5 °C 60.6 °F /  15.9 °C 30in /  1016.6hPa ENE 2mph /  3.2km/h 4mph /  6.4km/h 37% 0in /  0.0mm 731 W/m2
14:12 90.3 °F /  32.4 °C 59.7 °F /  15.4 °C 30in /  1016.6hPa NE 2.9mph /  4.7km/h 3mph /  4.8km/h 36% 0in /  0.0mm 714 W/m2
14:17 90.5 °F /  32.5 °C 59.2 °F /  15.1 °C 30in /  1016.6hPa ENE 4mph /  6.4km/h 5mph /  8km/h 35% 0in /  0.0mm 733 W/m2
14:22 90.7 °F /  32.6 °C 59.2 °F /  15.1 °C 30in /  1016.6hPa Calm   4mph /  6.4km/h 35% 0in /  0.0mm 759 W/m2
14:27 91 °F /  32.8 °C 58.8 °F /  14.9 °C 30in /  1016.6hPa WNW 0.9mph /  1.4km/h 5mph /  8km/h 34% 0in /  0.0mm 768 W/m2
14:32 91.2 °F /  32.9 °C 59.7 °F /  15.4 °C 30in /  1016.6hPa SE 2mph /  3.2km/h 6mph /  9.7km/h 35% 0in /  0.0mm 454 W/m2
14:37 91 °F /  32.8 °C 58.8 °F /  14.9 °C 30in /  1016.3hPa Calm   2mph /  3.2km/h 34% 0in /  0.0mm 731 W/m2
14:42 91 °F /  32.8 °C 57.9 °F /  14.4 °C 30in /  1016.3hPa East 2.9mph /  4.7km/h 7mph /  11.3km/h 33% 0in /  0.0mm 668 W/m2
14:47 91 °F /  32.8 °C 57.9 °F /  14.4 °C 30in /  1016.3hPa ENE 2mph /  3.2km/h 4mph /  6.4km/h 33% 0in /  0.0mm 703 W/m2
14:52 91 °F /  32.8 °C 58.8 °F /  14.9 °C 30in /  1016.3hPa NW 2mph /  3.2km/h 5mph /  8km/h 34% 0in /  0.0mm 686 W/m2
14:57 91.6 °F /  33.1 °C 57.6 °F /  14.2 °C 30in /  1016.3hPa Calm   3mph /  4.8km/h 32% 0in /  0.0mm 679 W/m2
15:02 91.6 °F /  33.1 °C 57.6 °F /  14.2 °C 30in /  1016.3hPa North 4mph /  6.4km/h 9mph /  14.5km/h 32% 0in /  0.0mm 677 W/m2
15:07 91.6 °F /  33.1 °C 59.2 °F /  15.1 °C 30in /  1016.3hPa East 2mph /  3.2km/h 7mph /  11.3km/h 34% 0in /  0.0mm 668 W/m2
15:12 91.8 °F /  33.2 °C 59.4 °F /  15.2 °C 30in /  1015.9hPa ESE 2.9mph /  4.7km/h 9mph /  14.5km/h 34% 0in /  0.0mm 622 W/m2
15:17 91.9 °F /  33.3 °C 58.6 °F /  14.8 °C 30in /  1015.9hPa East 0.9mph /  1.4km/h 6mph /  9.7km/h 33% 0in /  0.0mm 598 W/m2
15:22 91.9 °F /  33.3 °C 57.9 °F /  14.4 °C 30in /  1015.9hPa NE 2mph /  3.2km/h 8mph /  12.9km/h 32% 0in /  0.0mm 589 W/m2
15:27 92.1 °F /  33.4 °C 58.1 °F /  14.5 °C 30in /  1015.9hPa East 2mph /  3.2km/h 3mph /  4.8km/h 32% 0in /  0.0mm 591 W/m2
15:32 92.1 °F /  33.4 °C 57.2 °F /  14 °C 30in /  1015.6hPa ENE 0.9mph /  1.4km/h 3mph /  4.8km/h 31% 0in /  0.0mm 601 W/m2
15:37 92.3 °F /  33.5 °C 56.3 °F /  13.5 °C 30in /  1015.6hPa Calm   2mph /  3.2km/h 30% 0in /  0.0mm 599 W/m2
15:42 92.7 °F /  33.7 °C 56.7 °F /  13.7 °C 30in /  1015.6hPa Calm   3mph /  4.8km/h 30% 0in /  0.0mm 580 W/m2
15:47 92.3 °F /  33.5 °C 56.3 °F /  13.5 °C 30in /  1015.6hPa West 2.9mph /  4.7km/h 4mph /  6.4km/h 30% 0in /  0.0mm 246 W/m2
15:53 91.6 °F /  33.1 °C 57.6 °F /  14.2 °C 30in /  1015.6hPa SW 0.9mph /  1.4km/h 1mph /  1.6km/h 32% 0in /  0.0mm 97 W/m2
15:58 90.9 °F /  32.7 °C 56.8 °F /  13.8 °C 30in /  1015.6hPa NW 2mph /  3.2km/h 3mph /  4.8km/h 32% 0in /  0.0mm 120 W/m2
16:03 90.1 °F /  32.3 °C 55.4 °F /  13 °C 30in /  1015.6hPa NE 2.9mph /  4.7km/h 4mph /  6.4km/h 31% 0in /  0.0mm 137 W/m2
16:08 90 °F /  32.2 °C 56.1 °F /  13.4 °C 30in /  1015.6hPa East 2mph /  3.2km/h 4mph /  6.4km/h 32% 0in /  0.0mm 146 W/m2
16:13 89.2 °F /  31.8 °C 54.7 °F /  12.6 °C 30in /  1015.9hPa NNW 4mph /  6.4km/h 13mph /  20.9km/h 31% 0in /  0.0mm 137 W/m2
16:18 88 °F /  31.1 °C 55.2 °F /  12.9 °C 30in /  1015.9hPa NNW 4mph /  6.4km/h 7mph /  11.3km/h 33% 0in /  0.0mm 142 W/m2
16:23 87.1 °F /  30.6 °C 52.7 °F /  11.5 °C 30in /  1015.9hPa WNW 6.9mph /  11.1km/h 8mph /  12.9km/h 31% 0in /  0.0mm 148 W/m2
16:28 85.6 °F /  29.8 °C 50.7 °F /  10.4 °C 30in /  1016.3hPa NNW 4mph /  6.4km/h 15mph /  24.1km/h 30% 0in /  0.0mm 142 W/m2
16:33 84.4 °F /  29.1 °C 51.3 °F /  10.7 °C 30in /  1016.3hPa WNW 2mph /  3.2km/h 16mph /  25.7km/h 32% 0in /  0.0mm 127 W/m2
16:38 83.8 °F /  28.8 °C 51.6 °F /  10.9 °C 30in /  1016.3hPa North 4.9mph /  7.9km/h 13mph /  20.9km/h 33% 0in /  0.0mm 102 W/m2
16:43 83.8 °F /  28.8 °C 51.6 °F /  10.9 °C 30in /  1016.3hPa WNW 4.9mph /  7.9km/h 10mph /  16.1km/h 33% 0in /  0.0mm 86 W/m2
16:48 83.7 °F /  28.7 °C 53.1 °F /  11.7 °C 30in /  1016.3hPa WNW 8.9mph /  14.3km/h 15mph /  24.1km/h 35% 0in /  0.0mm 65 W/m2
16:53 82.9 °F /  28.3 °C 53.2 °F /  11.8 °C 30in /  1016.3hPa NW 6mph /  9.7km/h 12mph /  19.3km/h 36% 0in /  0.0mm 53 W/m2
16:58 82.6 °F /  28.1 °C 55 °F /  12.8 °C 30in /  1016.6hPa WNW 6mph /  9.7km/h 19mph /  30.6km/h 39% 0in /  0.0mm 40 W/m2
17:03 81.7 °F /  27.6 °C 55 °F /  12.8 °C 30in /  1016.3hPa WNW 12.1mph /  19.5km/h 14mph /  22.5km/h 40% 0in /  0.0mm 37 W/m2
17:08 81.7 °F /  27.6 °C 55 °F /  12.8 °C 30in /  1016.6hPa NW 8.9mph /  14.3km/h 11mph /  17.7km/h 40% 0in /  0.0mm 40 W/m2
17:13 81.7 °F /  27.6 °C 53.6 °F /  12 °C 30in /  1016.9hPa WNW 4mph /  6.4km/h 12mph /  19.3km/h 38% 0in /  0.0mm 47 W/m2
17:18 81.7 °F /  27.6 °C 54.3 °F /  12.4 °C 30in /  1016.9hPa WNW 4mph /  6.4km/h 11mph /  17.7km/h 39% 0in /  0.0mm 53 W/m2
17:23 81.1 °F /  27.3 °C 54.5 °F /  12.5 °C 30in /  1016.9hPa NW 8.9mph /  14.3km/h 12mph /  19.3km/h 40% 0in /  0.0mm 51 W/m2
17:28 80.1 °F /  26.7 °C 56.1 °F /  13.4 °C 30in /  1016.9hPa NW 4.9mph /  7.9km/h 8mph /  12.9km/h 44% 0in /  0.0mm 47 W/m2
17:34 79 °F /  26.1 °C 56.5 °F /  13.6 °C 30in /  1016.9hPa West 4mph /  6.4km/h 8mph /  12.9km/h 46% 0in /  0.0mm 42 W/m2
17:39 78.3 °F /  25.7 °C 56.3 °F /  13.5 °C 30in /  1016.9hPa WNW 2.9mph /  4.7km/h 7mph /  11.3km/h 47% 0in /  0.0mm 39 W/m2
17:44 78.4 °F /  25.8 °C 55.9 °F /  13.3 °C 30in /  1016.9hPa NNW 0.9mph /  1.4km/h 5mph /  8km/h 46% 0in /  0.0mm 37 W/m2
17:49 79 °F /  26.1 °C 55.2 °F /  12.9 °C 30in /  1016.9hPa NW 4.9mph /  7.9km/h 10mph /  16.1km/h 44% 0in /  0.0mm 39 W/m2
17:54 79.5 °F /  26.4 °C 55 °F /  12.8 °C 30in /  1016.9hPa NW 2mph /  3.2km/h 7mph /  11.3km/h 43% 0in /  0.0mm 46 W/m2
17:59 79.9 °F /  26.6 °C 55.9 °F /  13.3 °C 30in /  1016.9hPa WNW 2.9mph /  4.7km/h 9mph /  14.5km/h 44% 0in /  0.0mm 47 W/m2
18:04 80.2 °F /  26.8 °C 54.3 °F /  12.4 °C 30in /  1016.9hPa North 2mph /  3.2km/h 15mph /  24.1km/h 41% 0in /  0.0mm 49 W/m2
18:09 80.8 °F /  27.1 °C 54.1 °F /  12.3 °C 30in /  1017.3hPa NW 2mph /  3.2km/h 7mph /  11.3km/h 40% 0in /  0.0mm 54 W/m2
18:14 80.8 °F /  27.1 °C 54.9 °F /  12.7 °C 30in /  1017.3hPa ESE 2.9mph /  4.7km/h 5mph /  8km/h 41% 0in /  0.0mm 58 W/m2
18:19 80.2 °F /  26.8 °C 54.3 °F /  12.4 °C 30in /  1017.3hPa NW 10.1mph /  16.3km/h 10mph /  16.1km/h 41% 0in /  0.0mm 51 W/m2
18:24 80.1 °F /  26.7 °C 54.9 °F /  12.7 °C 30.1in /  1017.6hPa NNW 4.9mph /  7.9km/h 9mph /  14.5km/h 42% 0in /  0.0mm 39 W/m2
18:29 79.9 °F /  26.6 °C 55.4 °F /  13 °C 30in /  1017.3hPa NNW 2mph /  3.2km/h 6mph /  9.7km/h 43% 0in /  0.0mm 28 W/m2
18:34 79.5 °F /  26.4 °C 55.8 °F /  13.2 °C 30in /  1017.3hPa West 2mph /  3.2km/h 3mph /  4.8km/h 44% 0in /  0.0mm 26 W/m2
18:39 79.3 °F /  26.3 °C 55.6 °F /  13.1 °C 30in /  1017.3hPa West 0.9mph /  1.4km/h 3mph /  4.8km/h 44% 0in /  0.0mm 25 W/m2
18:44 79.2 °F /  26.2 °C 55.4 °F /  13 °C 30in /  1017.3hPa NNW 2.9mph /  4.7km/h 7mph /  11.3km/h 44% 0in /  0.0mm 19 W/m2
18:49 79 °F /  26.1 °C 55.2 °F /  12.9 °C 30in /  1017.3hPa West 2mph /  3.2km/h 3mph /  4.8km/h 44% 0in /  0.0mm 18 W/m2
18:54 79 °F /  26.1 °C 55.2 °F /  12.9 °C 30in /  1017.3hPa WSW 0.9mph /  1.4km/h 7mph /  11.3km/h 44% 0in /  0.0mm 16 W/m2
18:59 79 °F /  26.1 °C 55.2 °F /  12.9 °C 30in /  1017.3hPa NW 0.9mph /  1.4km/h 2mph /  3.2km/h 44% 0in /  0.0mm 14 W/m2
19:04 78.8 °F /  26 °C 55.6 °F /  13.1 °C 30in /  1017.3hPa West 2mph /  3.2km/h 3mph /  4.8km/h 45% 0in /  0.0mm 12 W/m2
19:09 78.4 °F /  25.8 °C 55.4 °F /  13 °C 30in /  1017.3hPa WNW 0.9mph /  1.4km/h 2mph /  3.2km/h 45% 0in /  0.0mm 12 W/m2
19:14 78.4 °F /  25.8 °C 55.4 °F /  13 °C 30in /  1017.3hPa NW 0.9mph /  1.4km/h 2mph /  3.2km/h 45% 0in /  0.0mm 11 W/m2
19:19 78.1 °F /  25.6 °C 55.6 °F /  13.1 °C 30in /  1017.3hPa West 2.9mph /  4.7km/h 3mph /  4.8km/h 46% 0in /  0.0mm 11 W/m2
19:24 77.9 °F /  25.5 °C 55.4 °F /  13 °C 30in /  1017.3hPa WNW 0.9mph /  1.4km/h 1mph /  1.6km/h 46% 0in /  0.0mm 9 W/m2
19:29 77.5 °F /  25.3 °C 55.8 °F /  13.2 °C 30in /  1017.3hPa West 2mph /  3.2km/h 2mph /  3.2km/h 47% 0in /  0.0mm 5 W/m2
19:34 77.4 °F /  25.2 °C 56.1 °F /  13.4 °C 30in /  1017.3hPa Calm   2mph /  3.2km/h 48% 0in /  0.0mm 0 W/m2
19:39 77 °F /  25 °C 56.3 °F /  13.5 °C 30in /  1016.9hPa SW 2mph /  3.2km/h 2mph /  3.2km/h 49% 0in /  0.0mm 0 W/m2
19:44 76.6 °F /  24.8 °C 55.4 °F /  13 °C 30in /  1016.9hPa Calm   2mph /  3.2km/h 48% 0in /  0.0mm 0 W/m2
19:49 76.5 °F /  24.7 °C 55.9 °F /  13.3 °C 30in /  1016.9hPa WSW 0.9mph /  1.4km/h 1mph /  1.6km/h 49% 0in /  0.0mm 0 W/m2
19:54 76.1 °F /  24.5 °C 55.6 °F /  13.1 °C 30in /  1016.9hPa WSW 2mph /  3.2km/h 2mph /  3.2km/h 49% 0in /  0.0mm 0 W/m2
19:59 75.9 °F /  24.4 °C 55.4 °F /  13 °C 30in /  1016.9hPa WSW 0.9mph /  1.4km/h 2mph /  3.2km/h 49% 0in /  0.0mm 0 W/m2
20:04 75.7 °F /  24.3 °C 55.8 °F /  13.2 °C 30in /  1016.9hPa WSW 0.9mph /  1.4km/h 2mph /  3.2km/h 50% 0in /  0.0mm 0 W/m2
20:09 75.6 °F /  24.2 °C 58.3 °F /  14.6 °C 30in /  1017.3hPa WNW 4mph /  6.4km/h 4mph /  6.4km/h 55% 0in /  0.0mm 0 W/m2
20:14 75 °F /  23.9 °C 58.8 °F /  14.9 °C 30in /  1017.3hPa WNW 0.9mph /  1.4km/h 1mph /  1.6km/h 57% 0in /  0.0mm 0 W/m2
20:19 74.8 °F /  23.8 °C 59 °F /  15 °C 30in /  1017.3hPa Calm     58% 0in /  0.0mm 0 W/m2
20:24 74.5 °F /  23.6 °C 57.7 °F /  14.3 °C 30in /  1017.3hPa Calm     56% 0in /  0.0mm 0 W/m2
20:29 74.1 °F /  23.4 °C 58.5 °F /  14.7 °C 30.1in /  1017.6hPa Calm     58% 0in /  0.0mm 0 W/m2
20:34 73.9 °F /  23.3 °C 58.6 °F /  14.8 °C 30.1in /  1018.0hPa ENE 0.9mph /  1.4km/h 2mph /  3.2km/h 59% 0in /  0.0mm 0 W/m2
20:39 73.9 °F /  23.3 °C 58.6 °F /  14.8 °C 30.1in /  1018.0hPa ENE 0.9mph /  1.4km/h 2mph /  3.2km/h 59% 0in /  0.0mm 0 W/m2
20:44 73.8 °F /  23.2 °C 59 °F /  15 °C 30.1in /  1018.3hPa ENE 0.9mph /  1.4km/h 2mph /  3.2km/h 60% 0in /  0.0mm 0 W/m2
20:49 73.6 °F /  23.1 °C 58.3 °F /  14.6 °C 30.1in /  1018.3hPa East 0.9mph /  1.4km/h 4mph /  6.4km/h 59% 0in /  0.0mm 0 W/m2
20:54 73.2 °F /  22.9 °C 58.5 °F /  14.7 °C 30.1in /  1018.6hPa Calm   1mph /  1.6km/h 60% 0in /  0.0mm 0 W/m2
20:59 73 °F /  22.8 °C 57.9 °F /  14.4 °C 30.1in /  1018.6hPa Calm   3mph /  4.8km/h 59% 0in /  0.0mm 0 W/m2
21:04 73 °F /  22.8 °C 57.9 °F /  14.4 °C 30.1in /  1019.0hPa Calm     59% 0in /  0.0mm 0 W/m2
21:09 73 °F /  22.8 °C 57.9 °F /  14.4 °C 30.1in /  1019.0hPa ENE 0.9mph /  1.4km/h 1mph /  1.6km/h 59% 0in /  0.0mm 0 W/m2
21:14 72.9 °F /  22.7 °C 57.7 °F /  14.3 °C 30.1in /  1019.0hPa Calm     59% 0in /  0.0mm 0 W/m2
21:19 72.9 °F /  22.7 °C 57.2 °F /  14 °C 30.1in /  1019.0hPa WSW 2mph /  3.2km/h 3mph /  4.8km/h 58% 0in /  0.0mm 0 W/m2
21:24 73 °F /  22.8 °C 57.9 °F /  14.4 °C 30.1in /  1019.0hPa Calm   2mph /  3.2km/h 59% 0in /  0.0mm 0 W/m2
21:29 72.9 °F /  22.7 °C 57.7 °F /  14.3 °C 30.1in /  1019.0hPa Calm   3mph /  4.8km/h 59% 0in /  0.0mm 0 W/m2
21:34 72.7 °F /  22.6 °C 57.6 °F /  14.2 °C 30.1in /  1019.0hPa West 2mph /  3.2km/h 3mph /  4.8km/h 59% 0in /  0.0mm 0 W/m2
21:40 72.5 °F /  22.5 °C 57.7 °F /  14.3 °C 30.1in /  1019.3hPa West 0.9mph /  1.4km/h 2mph /  3.2km/h 60% 0in /  0.0mm 0 W/m2
21:45 72.3 °F /  22.4 °C 57.7 °F /  14.3 °C 30.1in /  1019.3hPa West 0.9mph /  1.4km/h 3mph /  4.8km/h 60% 0in /  0.0mm 0 W/m2
21:50 72.1 °F /  22.3 °C 57.9 °F /  14.4 °C 30.1in /  1019.3hPa WSW 0.9mph /  1.4km/h 2mph /  3.2km/h 61% 0in /  0.0mm 0 W/m2
21:55 72 °F /  22.2 °C 58.3 °F /  14.6 °C 30.1in /  1019.3hPa WSW 0.9mph /  1.4km/h 1mph /  1.6km/h 62% 0in /  0.0mm 0 W/m2
22:00 71.8 °F /  22.1 °C 58.1 °F /  14.5 °C 30.1in /  1019.3hPa Calm     62% 0in /  0.0mm 0 W/m2
22:05 71.4 °F /  21.9 °C 58.1 °F /  14.5 °C 30.1in /  1019.3hPa Calm     63% 0in /  0.0mm 0 W/m2
22:10 71.1 °F /  21.7 °C 58.3 °F /  14.6 °C 30.1in /  1019.3hPa Calm   1mph /  1.6km/h 64% 0in /  0.0mm 0 W/m2
22:15 70.7 °F /  21.5 °C 57.9 °F /  14.4 °C 30.1in /  1019.3hPa WSW 0.9mph /  1.4km/h 1mph /  1.6km/h 64% 0in /  0.0mm 0 W/m2
22:20 70.5 °F /  21.4 °C 58.1 °F /  14.5 °C 30.1in /  1019.3hPa Calm   1mph /  1.6km/h 65% 0in /  0.0mm 0 W/m2
22:25 70.2 °F /  21.2 °C 57.9 °F /  14.4 °C 30.1in /  1019.3hPa WSW 0.9mph /  1.4km/h 1mph /  1.6km/h 65% 0in /  0.0mm 0 W/m2
22:30 70 °F /  21.1 °C 58.1 °F /  14.5 °C 30.1in /  1019.6hPa Calm   1mph /  1.6km/h 66% 0in /  0.0mm 0 W/m2
22:35 69.6 °F /  20.9 °C 58.1 °F /  14.5 °C 30.1in /  1019.6hPa SW 0.9mph /  1.4km/h 3mph /  4.8km/h 67% 0in /  0.0mm 0 W/m2
22:40 69.4 °F /  20.8 °C 57.9 °F /  14.4 °C 30.1in /  1019.6hPa SW 0.9mph /  1.4km/h 3mph /  4.8km/h 67% 0in /  0.0mm 0 W/m2
22:45 69.3 °F /  20.7 °C 58.3 °F /  14.6 °C 30.1in /  1019.6hPa Calm     68% 0in /  0.0mm 0 W/m2
22:50 69.3 °F /  20.7 °C 58.3 °F /  14.6 °C 30.1in /  1019.6hPa Calm   3mph /  4.8km/h 68% 0in /  0.0mm 0 W/m2
22:55 69.1 °F /  20.6 °C 58.5 °F /  14.7 °C 30.1in /  1019.6hPa SW 2mph /  3.2km/h 2mph /  3.2km/h 69% 0in /  0.0mm 0 W/m2
23:00 69.1 °F /  20.6 °C 58.5 °F /  14.7 °C 30.1in /  1019.6hPa Calm   1mph /  1.6km/h 69% 0in /  0.0mm 0 W/m2
23:05 68.9 °F /  20.5 °C 58.6 °F /  14.8 °C 30.1in /  1019.6hPa SW 0.9mph /  1.4km/h 1mph /  1.6km/h 70% 0in /  0.0mm 0 W/m2
23:10 68.9 °F /  20.5 °C 59.2 °F /  15.1 °C 30.1in /  1019.6hPa Calm   2mph /  3.2km/h 71% 0in /  0.0mm 0 W/m2
23:15 68.9 °F /  20.5 °C 59.2 °F /  15.1 °C 30.1in /  1019.6hPa SW 0.9mph /  1.4km/h 2mph /  3.2km/h 71% 0in /  0.0mm 0 W/m2
23:20 69.1 °F /  20.6 °C 59.4 °F /  15.2 °C 30.1in /  1020.0hPa Calm   1mph /  1.6km/h 71% 0in /  0.0mm 0 W/m2
23:25 69.1 °F /  20.6 °C 59.7 °F /  15.4 °C 30.1in /  1020.0hPa SW 0.9mph /  1.4km/h 2mph /  3.2km/h 72% 0in /  0.0mm 0 W/m2
23:30 69.3 °F /  20.7 °C 59.5 °F /  15.3 °C 30.1in /  1020.0hPa WSW 0.9mph /  1.4km/h 3mph /  4.8km/h 71% 0in /  0.0mm 0 W/m2
23:35 69.6 °F /  20.9 °C 59.7 °F /  15.4 °C 30.1in /  1020.0hPa NNW 0.9mph /  1.4km/h 3mph /  4.8km/h 71% 0in /  0.0mm 0 W/m2
23:40 70.2 °F /  21.2 °C 59.9 °F /  15.5 °C 30.1in /  1020.0hPa WNW 2mph /  3.2km/h 2mph /  3.2km/h 70% 0in /  0.0mm 0 W/m2
23:45 70.3 °F /  21.3 °C 60.1 °F /  15.6 °C 30.1in /  1020.0hPa NW 2mph /  3.2km/h 5mph /  8km/h 70% 0in /  0.0mm 0 W/m2
23:50 70.5 °F /  21.4 °C 60.3 °F /  15.7 °C 30.1in /  1020.3hPa West 2mph /  3.2km/h 6mph /  9.7km/h 70% 0in /  0.0mm 0 W/m2
23:55 70.5 °F /  21.4 °C 60.3 °F /  15.7 °C 30.1in /  1020.3hPa WNW 2mph /  3.2km/h 4mph /  6.4km/h 70% 0in /  0.0mm 0 W/m2
Juneau County Weather
Compliments of Weather Underground - 4 mb